ACT        NSW        VIC        QLD        SA        WA        TAS        NT        INFO        CALC            by VK5ZD

  Atmospheric Gas Attenuation - ITU Rec 676-11   --------------- db/100km ---------------
SA Stations Date Time Temp RH % AH g/m3 Dew Point Wind Direction Speed kph Gust kph Barometer mB Rainfall Since 9am 24GHz 47GHz 76GHz 122GHz 134GHz 241GHz
Adelaide (West Terrace / Ngayirdapira) 25 20:50 12.7 89 9.91 10.9 15 19 1014.4 2.4 22.5 28.5 45.9 120.7 117.9 406.6
Adelaide Airport 25 20:50 12.8 90 10.08 11.2 20 28 1014.4 2 22.8 28.7 46.6 122.5 120.2 414.4
Andamooka 25 09:00 10.5 77 7.47 6.7 6 1013.1 0 17.3 25.0 36.8 96.5 87.4 299.5
Arkaroola 25 15:00 16.9 75 10.79 12.5 28 1013.1 3 24.1 28.5 47.0 123.8 123.4 426.2
Cape Borda 25 20:50 13.6 90 10.59 12 33 39 1012.3 0 23.9 29.3 48.2 126.8 125.9 434.6
Cape Jaffa 25 20:50 12.3 85 9.23 9.8 28 30 1013.1 4.8 21.0 27.4 43.2 113.4 108.9 375.1
Cape Willoughby 25 20:50 11.8 87 9.16 9.7 24 28 1013.1 4.6 20.9 27.4 43.1 113.4 108.6 374.1
Ceduna 25 20:50 7.6 87 7.01 5.6 7 9 1017.6 0 16.5 25.2 36.5 95.5 84.8 289.9
Clare 25 20:30 10.5 100 9.7 10.5 28 46 1016.1 0.4 22.1 28.9 46.4 121.9 118.5 408.3
Cleve Airport 25 20:50 11.4 83 8.52 8.6 19 22 1016.1 2 19.5 26.6 40.8 107.1 100.7 346.0
Coober Pedy Airport 25 20:50 12.6 58 6.42 4.6 0 0 1020.1 0 15.0 23.0 32.1 83.9 72.3 246.7
Coonawarra 25 20:50 9.4 100 9.05 9.4 15 17 1008.9 1.2 20.8 27.8 43.8 115.2 110.2 379.1
Cultana (Defence) 25 20:50 11.4 87 8.93 9.3 20 22 1013.1 0 20.4 27.2 42.4 111.4 106.0 364.9
Cummins Airport 25 20:30 12.9 100 11.27 12.9 19 24 1015.2 1.6 25.4 30.8 51.8 136.3 137.2 474.1
Edinburgh 25 20:50 12.4 89 9.73 10.6 24 26 1014.8 0.8 22.1 28.3 45.3 119.1 115.9 399.4
Edithburgh 25 20:50 12.5 99 10.89 12.3 22 28 1013.1 0.6 24.6 30.2 50.2 132.2 132.2 456.3
Ernabella/Pukatja 25 20:50 13.1 39 4.45 -0.5 0 0 1020.7 0 10.8 20.1 24.9 64.5 48.5 163.3
Hawker 25 09:00 8 99 8.19 7.8 7 1017.6 6 19.0 27.1 41.3 108.3 100.7 345.5
Hindmarsh Island 25 20:50 13.4 79 9.18 9.8 30 35 1012.1 2.2 20.9 26.9 42.3 111.2 106.6 367.1
Kadina 25 20:50 12.1 89 9.55 10.3 20 24 1016.1 0.2 21.7 28.1 44.8 117.7 113.9 392.5
Keith West 25 20:50 10.9 95 9.45 10.2 19 22 1013.1 3 21.6 28.2 44.9 118.0 114.0 392.8
Kingscote 25 20:50 12.5 86 9.46 10.2 17 20 1012.1 1.4 21.5 27.7 44.0 115.6 111.7 384.9
Kuitpo 25 20:50 10.4 100 9.64 10.4 24 35 1012.1 5.4 22.0 28.7 46.0 120.9 117.4 404.5
Kyancutta 25 15:00 15 89 11.41 13.2 33 1015.5 2 25.5 30.3 51.0 134.3 135.5 468.4
Lameroo Aws 25 20:50 11.3 93 9.49 10.2 20 24 1013.1 1.6 21.6 28.1 44.8 117.9 114.0 392.7
Leigh Creek 25 20:50 9.5 72 6.56 4.7 0 0 1020.1 0 15.4 24.1 34.0 88.7 77.0 262.8
Loxton 25 20:50 12.6 92 10.18 11.3 19 24 1014.6 0.4 23.0 29.0 47.1 123.9 121.9 420.5
Marree Airport 25 20:50 11.3 54 5.51 2.3 6 7 1020.3 0 13.1 22.0 29.3 76.2 62.2 211.2
Meningie 25 09:00 10.2 84 8 7.7 1009.6 15 18.5 25.8 39.0 102.3 94.6 324.7
Minlaton Airport 25 20:50 12.6 91 10.07 11.2 30 35 1014.2 0 22.8 28.8 46.6 122.6 120.3 414.9
Minnipa Rs 25 20:50 9.5 80 7.28 6.2 15 15 1017.6 0 17.0 25.1 36.7 96.2 86.3 295.6
Moomba Airport 25 20:50 10.9 56 5.57 2.5 11 11 1021.1 0 13.2 22.2 29.7 77.2 63.3 214.9
Mount Barker 25 09:00 8.6 97 8.34 8.2 13 1013.1 25 19.3 27.0 41.4 108.7 101.6 349.0
Mount Gambier 25 20:50 10.7 92 9.04 9.5 17 24 1008.2 2.4 20.7 27.4 43.0 113.1 108.1 372.1
Murray Bridge 25 09:00 8.7 95 8.22 7.9 4 1013.1 8 19.0 26.8 40.8 107.1 99.8 342.6
Naracoorte 25 20:50 9.6 88 8.06 7.7 15 17 1009.3 3 18.6 26.1 39.5 103.7 96.1 330.0
Noarlunga 25 20:50 12.5 97 10.67 12 17 20 1013.1 1 24.1 29.8 49.2 129.6 129.0 445.1
Nullarbor 25 20:50 8 94 7.77 7.1 11 13 1017.7 0 18.1 26.4 39.5 103.5 94.8 324.9
Nuriootpa 25 20:50 11.2 100 10.14 11.2 30 39 1015 1.8 23.0 29.4 47.8 125.8 123.6 426.4
Oodnadatta 25 20:50 16 36 4.9 1 13 13 1020.5 0 11.7 20.1 25.6 66.3 51.8 175.1
Padthaway 25 20:50 9.8 93 8.63 8.7 11 13 1013.1 12.8 19.9 27.1 42.0 110.3 104.0 357.7
Pallamana 25 20:50 13.6 82 9.65 10.6 15 19 1013.7 0 21.8 27.7 44.2 116.3 112.9 389.1
Parafield 25 20:50 12.6 91 10.07 11.2 17 20 1014.6 0.4 22.8 28.8 46.6 122.7 120.3 415.1
Parawa West 25 20:50 11 95 9.51 10.3 26 32 1013.1 26.4 21.7 28.3 45.1 118.5 114.7 395.2
Parndana 25 20:50 12 83 8.85 9.3 20 22 1013.1 1 20.2 26.8 41.7 109.6 104.1 358.2
Point Avoid 25 20:50 14.2 89 10.87 12.5 24 30 1013.1 1.8 24.4 29.6 49.0 129.1 128.9 445.3
Port Augusta 25 20:50 11.8 85 8.95 9.4 9 13 1018 0 20.4 27.3 42.5 111.6 106.2 365.4
Port Lincoln Airport 25 20:50 12.7 86 9.57 10.4 20 22 1014.3 1.4 21.7 27.9 44.4 116.8 113.1 389.9
Port Pirie Airport Aws 25 20:50 11.4 91 9.34 10 11 13 1016.7 1.4 21.3 28.0 44.3 116.4 112.1 385.9
Renmark Airport 25 20:50 13.2 83 9.53 10.4 24 30 1014.6 0 21.6 27.7 44.0 115.6 111.9 385.6
Robe Airport 25 20:50 12 94 10.02 11 19 26 1013.1 2.4 22.7 28.8 46.7 122.9 120.4 415.3
Roseworthy 25 20:50 11.7 100 10.46 11.7 20 22 1014.7 1.4 23.7 29.8 48.9 128.7 127.4 439.7
Roxby Downs 25 20:50 9.9 63 5.88 3.2 6 6 1019.3 0 13.9 22.9 31.1 81.2 67.9 230.9
Snowtown 25 20:50 11.7 91 9.52 10.3 20 26 1016.4 0.4 21.7 28.2 44.9 118.0 114.1 393.2
Stenhouse Bay 25 20:50 13.9 81 9.71 10.8 17 20 1013.1 0.4 22.0 27.7 44.3 116.4 113.2 390.3
Strathalbyn 25 20:50 13.2 76 8.73 9.1 26 32 1012.6 1.6 19.9 26.3 40.6 106.6 100.8 347.0
Streaky Bay 25 09:00 14.4 81 10.01 11.2 15 1016.5 4 22.6 28.2 45.4 119.4 116.9 403.2
Tarcoola 25 20:50 9.5 72 6.56 4.7 7 7 1019.3 0 15.4 24.0 33.9 88.6 76.9 262.7
Whyalla 25 20:50 12.5 86 9.46 10.2 13 15 1017.3 0.4 21.5 27.9 44.2 116.2 112.2 386.5
Woomera 25 20:50 11 72 7.21 6.2 15 15 1019 0.2 16.7 24.7 35.8 93.7 83.9 287.1
Wudinna Airport 25 20:50 9.8 83 7.7 7.1 15 17 1017.4 1 17.8 25.7 38.3 100.3 91.6 314.1
Yongala 25 09:00 8.5 95 8.11 7.7 15 1013.1 7 18.8 26.6 40.5 106.2 98.5 338.1
Yunta 25 20:50 12 74 7.89 7.5 19 22 1013.1 0 18.2 25.3 37.8 99.2 91.2 313.1

Last Refresh: 25-Jul-2021 21:07:26

Bureau of Meteorology